sensor_id;sensor_type;location;lat;lon;timestamp;temperature;humidity
3408;DHT22;1717;50.240;8.406;2023-06-04T00:02:05;17.60;42.50
3408;DHT22;1717;50.240;8.406;2023-06-04T00:04:32;17.60;42.60
3408;DHT22;1717;50.240;8.406;2023-06-04T00:06:59;17.60;42.50
3408;DHT22;1717;50.240;8.406;2023-06-04T00:09:25;17.60;43.10
3408;DHT22;1717;50.240;8.406;2023-06-04T00:11:52;17.60;42.50
3408;DHT22;1717;50.240;8.406;2023-06-04T00:14:19;17.50;42.70
3408;DHT22;1717;50.240;8.406;2023-06-04T00:16:46;17.40;42.70
3408;DHT22;1717;50.240;8.406;2023-06-04T00:19:14;17.40;42.70
3408;DHT22;1717;50.240;8.406;2023-06-04T00:21:41;17.40;42.70
3408;DHT22;1717;50.240;8.406;2023-06-04T00:24:08;17.30;42.70
3408;DHT22;1717;50.240;8.406;2023-06-04T00:26:37;17.30;42.80
3408;DHT22;1717;50.240;8.406;2023-06-04T00:29:04;17.30;42.80
3408;DHT22;1717;50.240;8.406;2023-06-04T00:31:31;17.20;42.90
3408;DHT22;1717;50.240;8.406;2023-06-04T00:33:58;17.20;43.10
3408;DHT22;1717;50.240;8.406;2023-06-04T00:36:26;17.20;42.90
3408;DHT22;1717;50.240;8.406;2023-06-04T00:38:53;17.10;42.90
3408;DHT22;1717;50.240;8.406;2023-06-04T00:41:20;17.20;43.00
3408;DHT22;1717;50.240;8.406;2023-06-04T00:43:47;17.20;42.90
3408;DHT22;1717;50.240;8.406;2023-06-04T00:46:22;17.20;43.00
3408;DHT22;1717;50.240;8.406;2023-06-04T00:48:50;17.10;42.80
3408;DHT22;1717;50.240;8.406;2023-06-04T00:51:18;17.10;42.80
3408;DHT22;1717;50.240;8.406;2023-06-04T00:53:48;17.10;42.90
3408;DHT22;1717;50.240;8.406;2023-06-04T00:56:15;17.00;42.90
3408;DHT22;1717;50.240;8.406;2023-06-04T00:58:42;17.00;42.90
3408;DHT22;1717;50.240;8.406;2023-06-04T01:01:15;16.90;42.90
3408;DHT22;1717;50.240;8.406;2023-06-04T01:03:47;16.80;43.10
3408;DHT22;1717;50.240;8.406;2023-06-04T01:06:21;16.70;43.20
3408;DHT22;1717;50.240;8.406;2023-06-04T01:08:52;16.60;43.20
3408;DHT22;1717;50.240;8.406;2023-06-04T01:11:31;16.60;43.20
3408;DHT22;1717;50.240;8.406;2023-06-04T01:13:58;16.60;43.20
3408;DHT22;1717;50.240;8.406;2023-06-04T01:16:26;16.60;43.20
3408;DHT22;1717;50.240;8.406;2023-06-04T01:18:56;16.50;43.00
3408;DHT22;1717;50.240;8.406;2023-06-04T01:21:26;16.50;43.30
3408;DHT22;1717;50.240;8.406;2023-06-04T01:24:00;16.50;43.30
3408;DHT22;1717;50.240;8.406;2023-06-04T01:26:29;16.50;43.20
3408;DHT22;1717;50.240;8.406;2023-06-04T01:28:57;16.40;43.20
3408;DHT22;1717;50.240;8.406;2023-06-04T01:31:26;16.40;43.20
3408;DHT22;1717;50.240;8.406;2023-06-04T01:33:54;16.40;43.30
3408;DHT22;1717;50.240;8.406;2023-06-04T01:36:23;16.40;43.30
3408;DHT22;1717;50.240;8.406;2023-06-04T01:38:50;16.40;43.20
3408;DHT22;1717;50.240;8.406;2023-06-04T01:41:18;16.30;43.20
3408;DHT22;1717;50.240;8.406;2023-06-04T01:43:45;16.30;43.10
3408;DHT22;1717;50.240;8.406;2023-06-04T01:46:12;16.20;43.00
3408;DHT22;1717;50.240;8.406;2023-06-04T01:48:39;16.30;43.20
3408;DHT22;1717;50.240;8.406;2023-06-04T01:51:06;16.30;43.10
3408;DHT22;1717;50.240;8.406;2023-06-04T01:53:33;16.30;43.10
3408;DHT22;1717;50.240;8.406;2023-06-04T01:56:00;16.30;43.10
3408;DHT22;1717;50.240;8.406;2023-06-04T01:58:28;16.20;43.30
3408;DHT22;1717;50.240;8.406;2023-06-04T02:00:57;16.30;43.30
3408;DHT22;1717;50.240;8.406;2023-06-04T02:03:25;16.20;43.20
3408;DHT22;1717;50.240;8.406;2023-06-04T02:05:53;16.30;43.40
3408;DHT22;1717;50.240;8.406;2023-06-04T02:08:19;16.10;43.30
3408;DHT22;1717;50.240;8.406;2023-06-04T02:10:47;16.10;43.30
3408;DHT22;1717;50.240;8.406;2023-06-04T02:13:14;16.10;43.30
3408;DHT22;1717;50.240;8.406;2023-06-04T02:15:43;16.10;43.40
3408;DHT22;1717;50.240;8.406;2023-06-04T02:18:14;16.10;43.30
3408;DHT22;1717;50.240;8.406;2023-06-04T02:20:42;16.10;43.30
3408;DHT22;1717;50.240;8.406;2023-06-04T02:23:10;16.10;43.30
3408;DHT22;1717;50.240;8.406;2023-06-04T02:25:37;16.10;43.40
3408;DHT22;1717;50.240;8.406;2023-06-04T02:28:04;16.00;43.40
3408;DHT22;1717;50.240;8.406;2023-06-04T02:30:30;15.90;43.40
3408;DHT22;1717;50.240;8.406;2023-06-04T02:32:59;15.80;43.50
3408;DHT22;1717;50.240;8.406;2023-06-04T02:35:27;15.70;43.70
3408;DHT22;1717;50.240;8.406;2023-06-04T02:37:54;15.70;43.80
3408;DHT22;1717;50.240;8.406;2023-06-04T02:40:22;15.70;43.80
3408;DHT22;1717;50.240;8.406;2023-06-04T02:42:48;15.70;43.80
3408;DHT22;1717;50.240;8.406;2023-06-04T02:45:15;15.70;44.20
3408;DHT22;1717;50.240;8.406;2023-06-04T02:47:42;15.70;44.20
3408;DHT22;1717;50.240;8.406;2023-06-04T02:50:12;15.60;44.20
3408;DHT22;1717;50.240;8.406;2023-06-04T02:52:39;15.60;44.20
3408;DHT22;1717;50.240;8.406;2023-06-04T02:55:07;15.70;44.20
3408;DHT22;1717;50.240;8.406;2023-06-04T02:57:35;15.50;44.10
3408;DHT22;1717;50.240;8.406;2023-06-04T03:00:02;15.50;44.10
3408;DHT22;1717;50.240;8.406;2023-06-04T03:02:37;15.50;44.20
3408;DHT22;1717;50.240;8.406;2023-06-04T03:05:05;15.40;44.20
3408;DHT22;1717;50.240;8.406;2023-06-04T03:07:33;15.40;44.30
3408;DHT22;1717;50.240;8.406;2023-06-04T03:10:00;15.40;44.50
3408;DHT22;1717;50.240;8.406;2023-06-04T03:12:26;15.50;44.50
3408;DHT22;1717;50.240;8.406;2023-06-04T03:14:53;15.40;44.50
3408;DHT22;1717;50.240;8.406;2023-06-04T03:17:20;15.40;44.80
3408;DHT22;1717;50.240;8.406;2023-06-04T03:19:47;15.30;44.70
3408;DHT22;1717;50.240;8.406;2023-06-04T03:22:14;15.30;44.70
3408;DHT22;1717;50.240;8.406;2023-06-04T03:24:42;15.30;44.50
3408;DHT22;1717;50.240;8.406;2023-06-04T03:27:10;15.30;44.50
3408;DHT22;1717;50.240;8.406;2023-06-04T03:29:37;15.30;44.30
3408;DHT22;1717;50.240;8.406;2023-06-04T03:32:05;15.30;44.40
3408;DHT22;1717;50.240;8.406;2023-06-04T03:34:32;15.30;44.50
3408;DHT22;1717;50.240;8.406;2023-06-04T03:36:59;15.20;44.40
3408;DHT22;1717;50.240;8.406;2023-06-04T03:39:26;15.30;44.30
3408;DHT22;1717;50.240;8.406;2023-06-04T03:41:55;15.20;44.00
3408;DHT22;1717;50.240;8.406;2023-06-04T03:44:22;15.30;44.10
3408;DHT22;1717;50.240;8.406;2023-06-04T03:46:48;15.30;44.10
3408;DHT22;1717;50.240;8.406;2023-06-04T03:49:15;15.30;44.20
3408;DHT22;1717;50.240;8.406;2023-06-04T03:51:43;15.30;44.30
3408;DHT22;1717;50.240;8.406;2023-06-04T03:54:10;15.20;44.30
3408;DHT22;1717;50.240;8.406;2023-06-04T03:56:37;15.20;44.30
3408;DHT22;1717;50.240;8.406;2023-06-04T03:59:06;15.20;44.40
3408;DHT22;1717;50.240;8.406;2023-06-04T04:01:33;15.20;44.50
3408;DHT22;1717;50.240;8.406;2023-06-04T04:03:59;15.30;44.80
3408;DHT22;1717;50.240;8.406;2023-06-04T04:06:26;15.20;44.60
3408;DHT22;1717;50.240;8.406;2023-06-04T04:08:53;15.30;44.60
3408;DHT22;1717;50.240;8.406;2023-06-04T04:11:20;15.30;44.70
3408;DHT22;1717;50.240;8.406;2023-06-04T04:13:48;15.30;45.30
3408;DHT22;1717;50.240;8.406;2023-06-04T04:16:16;15.50;45.00
3408;DHT22;1717;50.240;8.406;2023-06-04T04:18:43;15.30;45.00
3408;DHT22;1717;50.240;8.406;2023-06-04T04:21:10;15.30;45.00
3408;DHT22;1717;50.240;8.406;2023-06-04T04:23:38;15.30;45.10
3408;DHT22;1717;50.240;8.406;2023-06-04T04:26:06;15.30;45.10
3408;DHT22;1717;50.240;8.406;2023-06-04T04:28:32;15.30;45.10
3408;DHT22;1717;50.240;8.406;2023-06-04T04:31:00;15.30;45.20
3408;DHT22;1717;50.240;8.406;2023-06-04T04:33:29;15.30;45.40
3408;DHT22;1717;50.240;8.406;2023-06-04T04:35:58;15.30;45.40
3408;DHT22;1717;50.240;8.406;2023-06-04T04:38:25;15.30;45.30
3408;DHT22;1717;50.240;8.406;2023-06-04T04:40:54;15.30;45.70
3408;DHT22;1717;50.240;8.406;2023-06-04T04:43:29;15.30;45.90
3408;DHT22;1717;50.240;8.406;2023-06-04T04:45:56;15.40;45.80
3408;DHT22;1717;50.240;8.406;2023-06-04T04:48:23;15.40;46.10
3408;DHT22;1717;50.240;8.406;2023-06-04T04:50:52;15.40;45.60
3408;DHT22;1717;50.240;8.406;2023-06-04T04:53:18;15.40;46.20
3408;DHT22;1717;50.240;8.406;2023-06-04T04:55:45;15.40;45.70
3408;DHT22;1717;50.240;8.406;2023-06-04T04:58:13;15.40;45.70
3408;DHT22;1717;50.240;8.406;2023-06-04T05:00:39;15.40;45.90
3408;DHT22;1717;50.240;8.406;2023-06-04T05:03:06;15.40;45.90
3408;DHT22;1717;50.240;8.406;2023-06-04T05:05:33;15.40;45.90
3408;DHT22;1717;50.240;8.406;2023-06-04T05:08:02;15.40;46.00
3408;DHT22;1717;50.240;8.406;2023-06-04T05:10:28;15.40;46.10
3408;DHT22;1717;50.240;8.406;2023-06-04T05:12:57;15.40;46.00
3408;DHT22;1717;50.240;8.406;2023-06-04T05:15:25;15.40;46.10
3408;DHT22;1717;50.240;8.406;2023-06-04T05:17:52;15.40;46.10
3408;DHT22;1717;50.240;8.406;2023-06-04T05:20:19;15.40;46.20
3408;DHT22;1717;50.240;8.406;2023-06-04T05:22:48;15.40;46.20
3408;DHT22;1717;50.240;8.406;2023-06-04T05:25:17;15.40;46.10
3408;DHT22;1717;50.240;8.406;2023-06-04T05:27:44;15.40;46.40
3408;DHT22;1717;50.240;8.406;2023-06-04T05:30:11;15.50;46.30
3408;DHT22;1717;50.240;8.406;2023-06-04T05:32:39;15.40;46.30
3408;DHT22;1717;50.240;8.406;2023-06-04T05:35:07;15.40;46.60
3408;DHT22;1717;50.240;8.406;2023-06-04T05:37:35;15.50;46.20
3408;DHT22;1717;50.240;8.406;2023-06-04T05:40:04;15.50;46.30
3408;DHT22;1717;50.240;8.406;2023-06-04T05:42:34;15.50;46.50
3408;DHT22;1717;50.240;8.406;2023-06-04T05:45:01;15.60;46.80
3408;DHT22;1717;50.240;8.406;2023-06-04T05:47:28;15.60;47.00
3408;DHT22;1717;50.240;8.406;2023-06-04T05:49:55;15.60;46.70
3408;DHT22;1717;50.240;8.406;2023-06-04T05:52:22;15.60;46.50
3408;DHT22;1717;50.240;8.406;2023-06-04T05:54:49;15.70;46.50
3408;DHT22;1717;50.240;8.406;2023-06-04T05:57:16;15.80;46.50
3408;DHT22;1717;50.240;8.406;2023-06-04T05:59:44;15.70;46.80
3408;DHT22;1717;50.240;8.406;2023-06-04T06:02:11;15.90;46.40
3408;DHT22;1717;50.240;8.406;2023-06-04T06:04:39;16.00;47.00
3408;DHT22;1717;50.240;8.406;2023-06-04T06:07:06;16.10;46.30
3408;DHT22;1717;50.240;8.406;2023-06-04T06:09:33;16.30;46.30
3408;DHT22;1717;50.240;8.406;2023-06-04T06:12:01;16.40;46.10
3408;DHT22;1717;50.240;8.406;2023-06-04T06:14:28;16.50;45.80
3408;DHT22;1717;50.240;8.406;2023-06-04T06:16:56;16.60;45.70
3408;DHT22;1717;50.240;8.406;2023-06-04T06:19:23;16.70;45.40
3408;DHT22;1717;50.240;8.406;2023-06-04T06:21:50;16.80;45.30
3408;DHT22;1717;50.240;8.406;2023-06-04T06:24:17;17.00;45.10
3408;DHT22;1717;50.240;8.406;2023-06-04T06:26:43;17.10;44.90
3408;DHT22;1717;50.240;8.406;2023-06-04T06:29:10;17.10;44.60
3408;DHT22;1717;50.240;8.406;2023-06-04T06:31:37;17.30;44.60
3408;DHT22;1717;50.240;8.406;2023-06-04T06:34:05;17.40;44.50
3408;DHT22;1717;50.240;8.406;2023-06-04T06:36:32;17.50;44.50
3408;DHT22;1717;50.240;8.406;2023-06-04T06:38:59;17.60;44.60
3408;DHT22;1717;50.240;8.406;2023-06-04T06:41:26;17.70;44.30
3408;DHT22;1717;50.240;8.406;2023-06-04T06:43:53;17.80;44.20
3408;DHT22;1717;50.240;8.406;2023-06-04T06:46:19;17.90;44.20
3408;DHT22;1717;50.240;8.406;2023-06-04T06:48:46;18.00;44.20
3408;DHT22;1717;50.240;8.406;2023-06-04T06:51:15;18.10;44.00
3408;DHT22;1717;50.240;8.406;2023-06-04T06:53:43;18.20;44.00
3408;DHT22;1717;50.240;8.406;2023-06-04T06:56:09;18.30;44.20
3408;DHT22;1717;50.240;8.406;2023-06-04T06:58:36;18.40;43.60
3408;DHT22;1717;50.240;8.406;2023-06-04T07:01:03;18.50;43.20
3408;DHT22;1717;50.240;8.406;2023-06-04T07:03:31;18.60;43.00
3408;DHT22;1717;50.240;8.406;2023-06-04T07:05:58;18.70;42.60
3408;DHT22;1717;50.240;8.406;2023-06-04T07:08:26;18.80;42.30
3408;DHT22;1717;50.240;8.406;2023-06-04T07:10:53;18.90;42.40
3408;DHT22;1717;50.240;8.406;2023-06-04T07:13:20;19.00;42.40
3408;DHT22;1717;50.240;8.406;2023-06-04T07:15:47;19.20;42.40
3408;DHT22;1717;50.240;8.406;2023-06-04T07:18:13;19.30;42.20
3408;DHT22;1717;50.240;8.406;2023-06-04T07:20:40;19.40;42.10
3408;DHT22;1717;50.240;8.406;2023-06-04T07:23:07;19.50;42.00
3408;DHT22;1717;50.240;8.406;2023-06-04T07:25:35;19.60;41.80
3408;DHT22;1717;50.240;8.406;2023-06-04T07:28:02;19.70;41.70
3408;DHT22;1717;50.240;8.406;2023-06-04T07:30:29;19.80;41.60
3408;DHT22;1717;50.240;8.406;2023-06-04T07:32:56;19.90;41.30
3408;DHT22;1717;50.240;8.406;2023-06-04T07:35:23;20.00;41.40
3408;DHT22;1717;50.240;8.406;2023-06-04T07:37:50;20.10;41.20
3408;DHT22;1717;50.240;8.406;2023-06-04T07:40:17;20.20;40.70
3408;DHT22;1717;50.240;8.406;2023-06-04T07:42:46;20.20;40.80
3408;DHT22;1717;50.240;8.406;2023-06-04T07:45:13;20.30;39.90
3408;DHT22;1717;50.240;8.406;2023-06-04T07:47:40;20.40;39.40
3408;DHT22;1717;50.240;8.406;2023-06-04T07:50:08;20.50;39.50
3408;DHT22;1717;50.240;8.406;2023-06-04T07:52:34;20.60;39.10
3408;DHT22;1717;50.240;8.406;2023-06-04T07:55:02;20.60;38.90
3408;DHT22;1717;50.240;8.406;2023-06-04T07:57:29;20.70;38.90
3408;DHT22;1717;50.240;8.406;2023-06-04T07:59:57;20.80;39.00
3408;DHT22;1717;50.240;8.406;2023-06-04T08:02:25;20.80;38.20
3408;DHT22;1717;50.240;8.406;2023-06-04T08:04:52;20.80;38.60
3408;DHT22;1717;50.240;8.406;2023-06-04T08:07:18;20.90;38.70
3408;DHT22;1717;50.240;8.406;2023-06-04T08:09:45;21.00;38.70
3408;DHT22;1717;50.240;8.406;2023-06-04T08:12:12;21.10;39.00
3408;DHT22;1717;50.240;8.406;2023-06-04T08:14:41;21.10;38.90
3408;DHT22;1717;50.240;8.406;2023-06-04T08:17:09;21.20;39.20
3408;DHT22;1717;50.240;8.406;2023-06-04T08:19:36;21.30;39.40
3408;DHT22;1717;50.240;8.406;2023-06-04T08:22:03;21.40;39.40
3408;DHT22;1717;50.240;8.406;2023-06-04T08:24:30;21.50;39.20
3408;DHT22;1717;50.240;8.406;2023-06-04T08:26:57;21.50;39.20
3408;DHT22;1717;50.240;8.406;2023-06-04T08:29:24;21.60;39.40
3408;DHT22;1717;50.240;8.406;2023-06-04T08:31:51;21.70;39.30
3408;DHT22;1717;50.240;8.406;2023-06-04T08:34:19;21.70;39.30
3408;DHT22;1717;50.240;8.406;2023-06-04T08:36:46;21.70;39.30
3408;DHT22;1717;50.240;8.406;2023-06-04T08:39:13;21.80;39.10
3408;DHT22;1717;50.240;8.406;2023-06-04T08:41:43;21.80;39.00
3408;DHT22;1717;50.240;8.406;2023-06-04T08:44:11;21.90;39.10
3408;DHT22;1717;50.240;8.406;2023-06-04T08:46:38;22.00;39.20
3408;DHT22;1717;50.240;8.406;2023-06-04T08:49:07;22.00;38.80
3408;DHT22;1717;50.240;8.406;2023-06-04T08:51:37;22.20;39.50
3408;DHT22;1717;50.240;8.406;2023-06-04T08:54:04;22.20;38.80
3408;DHT22;1717;50.240;8.406;2023-06-04T08:56:33;22.30;38.70
3408;DHT22;1717;50.240;8.406;2023-06-04T08:59:03;22.30;38.40
3408;DHT22;1717;50.240;8.406;2023-06-04T09:01:32;22.30;38.10
3408;DHT22;1717;50.240;8.406;2023-06-04T09:04:01;22.40;38.00
3408;DHT22;1717;50.240;8.406;2023-06-04T09:06:28;22.40;38.00
3408;DHT22;1717;50.240;8.406;2023-06-04T09:08:58;22.50;38.10
3408;DHT22;1717;50.240;8.406;2023-06-04T09:11:27;22.50;37.80
3408;DHT22;1717;50.240;8.406;2023-06-04T09:14:01;22.60;37.80
3408;DHT22;1717;50.240;8.406;2023-06-04T09:16:30;22.70;37.50
3408;DHT22;1717;50.240;8.406;2023-06-04T09:19:02;22.70;37.40
3408;DHT22;1717;50.240;8.406;2023-06-04T09:21:29;22.70;37.50
3408;DHT22;1717;50.240;8.406;2023-06-04T09:23:58;22.70;37.30
3408;DHT22;1717;50.240;8.406;2023-06-04T09:26:25;22.80;37.30
3408;DHT22;1717;50.240;8.406;2023-06-04T09:28:52;22.90;37.30
3408;DHT22;1717;50.240;8.406;2023-06-04T09:31:22;22.90;37.00
3408;DHT22;1717;50.240;8.406;2023-06-04T09:33:52;23.00;37.10
3408;DHT22;1717;50.240;8.406;2023-06-04T09:36:19;23.00;36.90
3408;DHT22;1717;50.240;8.406;2023-06-04T09:38:46;23.00;37.10
3408;DHT22;1717;50.240;8.406;2023-06-04T09:41:16;23.10;37.30
3408;DHT22;1717;50.240;8.406;2023-06-04T09:43:45;23.10;37.10
3408;DHT22;1717;50.240;8.406;2023-06-04T09:46:13;23.20;37.30
3408;DHT22;1717;50.240;8.406;2023-06-04T09:48:41;23.30;37.10
3408;DHT22;1717;50.240;8.406;2023-06-04T09:51:09;23.30;37.10
3408;DHT22;1717;50.240;8.406;2023-06-04T09:53:36;23.40;37.30
3408;DHT22;1717;50.240;8.406;2023-06-04T09:56:04;23.50;37.10
3408;DHT22;1717;50.240;8.406;2023-06-04T09:58:33;23.50;36.60
3408;DHT22;1717;50.240;8.406;2023-06-04T10:01:02;23.50;36.70
3408;DHT22;1717;50.240;8.406;2023-06-04T10:03:31;23.60;36.20
3408;DHT22;1717;50.240;8.406;2023-06-04T10:05:59;23.60;36.10
3408;DHT22;1717;50.240;8.406;2023-06-04T10:08:27;23.60;36.30
3408;DHT22;1717;50.240;8.406;2023-06-04T10:10:56;23.70;36.30
3408;DHT22;1717;50.240;8.406;2023-06-04T10:13:27;23.80;36.30
3408;DHT22;1717;50.240;8.406;2023-06-04T10:15:58;23.80;35.70
3408;DHT22;1717;50.240;8.406;2023-06-04T10:18:27;23.90;36.10
3408;DHT22;1717;50.240;8.406;2023-06-04T10:20:55;23.90;35.70
3408;DHT22;1717;50.240;8.406;2023-06-04T10:23:23;23.90;35.80
3408;DHT22;1717;50.240;8.406;2023-06-04T10:25:51;24.00;35.60
3408;DHT22;1717;50.240;8.406;2023-06-04T10:28:20;24.00;35.30
3408;DHT22;1717;50.240;8.406;2023-06-04T10:30:47;24.00;35.10
3408;DHT22;1717;50.240;8.406;2023-06-04T10:33:18;24.10;35.40
3408;DHT22;1717;50.240;8.406;2023-06-04T10:35:49;24.10;35.70
3408;DHT22;1717;50.240;8.406;2023-06-04T10:38:16;24.20;34.90
3408;DHT22;1717;50.240;8.406;2023-06-04T10:40:44;24.20;35.20
3408;DHT22;1717;50.240;8.406;2023-06-04T10:43:12;24.30;34.50
3408;DHT22;1717;50.240;8.406;2023-06-04T10:45:41;24.30;33.60
3408;DHT22;1717;50.240;8.406;2023-06-04T10:48:10;24.40;34.30
3408;DHT22;1717;50.240;8.406;2023-06-04T10:50:50;24.50;34.10
3408;DHT22;1717;50.240;8.406;2023-06-04T10:53:18;24.60;34.30
3408;DHT22;1717;50.240;8.406;2023-06-04T10:55:46;24.60;34.10
3408;DHT22;1717;50.240;8.406;2023-06-04T10:58:13;24.70;34.20
3408;DHT22;1717;50.240;8.406;2023-06-04T11:00:41;24.80;34.30
3408;DHT22;1717;50.240;8.406;2023-06-04T11:03:10;24.90;34.40
3408;DHT22;1717;50.240;8.406;2023-06-04T11:05:39;24.80;33.60
3408;DHT22;1717;50.240;8.406;2023-06-04T11:08:07;24.90;33.80
3408;DHT22;1717;50.240;8.406;2023-06-04T11:10:36;25.00;34.00
3408;DHT22;1717;50.240;8.406;2023-06-04T11:13:04;25.00;34.00
3408;DHT22;1717;50.240;8.406;2023-06-04T11:15:39;25.00;34.00
3408;DHT22;1717;50.240;8.406;2023-06-04T11:18:06;25.10;34.20
3408;DHT22;1717;50.240;8.406;2023-06-04T11:20:33;25.20;34.40
3408;DHT22;1717;50.240;8.406;2023-06-04T11:23:00;25.30;34.30
3408;DHT22;1717;50.240;8.406;2023-06-04T11:25:30;25.50;34.40
3408;DHT22;1717;50.240;8.406;2023-06-04T11:28:00;25.40;32.60
3408;DHT22;1717;50.240;8.406;2023-06-04T11:30:29;25.40;33.40
3408;DHT22;1717;50.240;8.406;2023-06-04T11:33:03;25.50;33.00
3408;DHT22;1717;50.240;8.406;2023-06-04T11:35:31;25.50;33.10
3408;DHT22;1717;50.240;8.406;2023-06-04T11:37:58;25.60;32.90
3408;DHT22;1717;50.240;8.406;2023-06-04T11:40:25;25.60;33.20
3408;DHT22;1717;50.240;8.406;2023-06-04T11:42:55;25.70;33.40
3408;DHT22;1717;50.240;8.406;2023-06-04T11:45:22;25.70;33.30
3408;DHT22;1717;50.240;8.406;2023-06-04T11:47:51;25.80;33.00
3408;DHT22;1717;50.240;8.406;2023-06-04T11:50:18;25.80;32.60
3408;DHT22;1717;50.240;8.406;2023-06-04T11:52:45;25.90;32.60
3408;DHT22;1717;50.240;8.406;2023-06-04T11:55:13;26.00;32.60
3408;DHT22;1717;50.240;8.406;2023-06-04T11:57:43;26.00;32.60
3408;DHT22;1717;50.240;8.406;2023-06-04T12:00:12;26.10;32.30
3408;DHT22;1717;50.240;8.406;2023-06-04T12:02:49;26.20;32.60
3408;DHT22;1717;50.240;8.406;2023-06-04T12:05:17;26.20;32.50
3408;DHT22;1717;50.240;8.406;2023-06-04T12:07:45;26.30;32.40
3408;DHT22;1717;50.240;8.406;2023-06-04T12:10:13;26.40;32.50
3408;DHT22;1717;50.240;8.406;2023-06-04T12:12:40;26.40;31.60
3408;DHT22;1717;50.240;8.406;2023-06-04T12:15:08;26.40;32.00
3408;DHT22;1717;50.240;8.406;2023-06-04T12:17:37;26.50;31.40
3408;DHT22;1717;50.240;8.406;2023-06-04T12:20:05;26.60;31.20
3408;DHT22;1717;50.240;8.406;2023-06-04T12:22:33;26.60;31.70
3408;DHT22;1717;50.240;8.406;2023-06-04T12:25:10;26.70;31.60
3408;DHT22;1717;50.240;8.406;2023-06-04T12:27:46;26.80;31.10
3408;DHT22;1717;50.240;8.406;2023-06-04T12:30:13;26.80;31.20
3408;DHT22;1717;50.240;8.406;2023-06-04T12:32:42;26.80;30.70
3408;DHT22;1717;50.240;8.406;2023-06-04T12:35:09;26.90;31.00
3408;DHT22;1717;50.240;8.406;2023-06-04T12:37:36;27.00;30.90
3408;DHT22;1717;50.240;8.406;2023-06-04T12:40:03;27.10;30.90
3408;DHT22;1717;50.240;8.406;2023-06-04T12:42:32;27.10;31.00
3408;DHT22;1717;50.240;8.406;2023-06-04T12:44:58;27.20;30.50
3408;DHT22;1717;50.240;8.406;2023-06-04T12:47:25;27.30;30.50
3408;DHT22;1717;50.240;8.406;2023-06-04T12:49:53;27.40;30.10
3408;DHT22;1717;50.240;8.406;2023-06-04T12:52:20;27.50;30.70
3408;DHT22;1717;50.240;8.406;2023-06-04T12:54:47;27.50;30.00
3408;DHT22;1717;50.240;8.406;2023-06-04T12:57:14;27.60;30.00
3408;DHT22;1717;50.240;8.406;2023-06-04T12:59:41;27.70;30.10
3408;DHT22;1717;50.240;8.406;2023-06-04T13:02:08;27.80;30.10
3408;DHT22;1717;50.240;8.406;2023-06-04T13:04:35;27.90;29.80
3408;DHT22;1717;50.240;8.406;2023-06-04T13:07:03;27.90;29.70
3408;DHT22;1717;50.240;8.406;2023-06-04T13:09:30;28.00;29.60
3408;DHT22;1717;50.240;8.406;2023-06-04T13:11:58;28.10;29.40
3408;DHT22;1717;50.240;8.406;2023-06-04T13:14:25;28.10;29.00
3408;DHT22;1717;50.240;8.406;2023-06-04T13:16:51;28.20;28.30
3408;DHT22;1717;50.240;8.406;2023-06-04T13:19:18;28.30;28.90
3408;DHT22;1717;50.240;8.406;2023-06-04T13:21:46;28.40;28.80
3408;DHT22;1717;50.240;8.406;2023-06-04T13:24:14;28.50;28.80
3408;DHT22;1717;50.240;8.406;2023-06-04T13:26:41;28.50;28.40
3408;DHT22;1717;50.240;8.406;2023-06-04T13:29:08;28.60;28.50
3408;DHT22;1717;50.240;8.406;2023-06-04T13:31:35;28.60;27.90
3408;DHT22;1717;50.240;8.406;2023-06-04T13:34:04;28.70;28.40
3408;DHT22;1717;50.240;8.406;2023-06-04T13:36:31;28.70;27.60
3408;DHT22;1717;50.240;8.406;2023-06-04T13:38:58;28.80;28.10
3408;DHT22;1717;50.240;8.406;2023-06-04T13:41:26;28.80;27.80
3408;DHT22;1717;50.240;8.406;2023-06-04T13:43:53;28.80;27.20
3408;DHT22;1717;50.240;8.406;2023-06-04T13:46:20;28.80;27.50
3408;DHT22;1717;50.240;8.406;2023-06-04T13:48:47;28.90;27.20
3408;DHT22;1717;50.240;8.406;2023-06-04T13:51:14;28.90;27.40
3408;DHT22;1717;50.240;8.406;2023-06-04T13:53:41;29.00;27.50
3408;DHT22;1717;50.240;8.406;2023-06-04T13:56:07;29.00;27.30
3408;DHT22;1717;50.240;8.406;2023-06-04T13:58:36;29.00;27.20
3408;DHT22;1717;50.240;8.406;2023-06-04T14:01:02;29.00;27.20
3408;DHT22;1717;50.240;8.406;2023-06-04T14:03:29;29.10;27.20
3408;DHT22;1717;50.240;8.406;2023-06-04T14:05:56;29.10;27.20
3408;DHT22;1717;50.240;8.406;2023-06-04T14:08:23;29.20;27.40
3408;DHT22;1717;50.240;8.406;2023-06-04T14:10:50;29.20;27.00
3408;DHT22;1717;50.240;8.406;2023-06-04T14:13:17;29.30;26.60
3408;DHT22;1717;50.240;8.406;2023-06-04T14:15:45;29.30;26.70
3408;DHT22;1717;50.240;8.406;2023-06-04T14:18:12;29.40;27.00
3408;DHT22;1717;50.240;8.406;2023-06-04T14:20:39;29.40;27.00
3408;DHT22;1717;50.240;8.406;2023-06-04T14:23:06;29.50;27.10
3408;DHT22;1717;50.240;8.406;2023-06-04T14:25:33;29.50;27.20
3408;DHT22;1717;50.240;8.406;2023-06-04T14:28:02;29.50;27.20
3408;DHT22;1717;50.240;8.406;2023-06-04T14:30:28;29.50;27.40
3408;DHT22;1717;50.240;8.406;2023-06-04T14:32:57;29.60;27.40
3408;DHT22;1717;50.240;8.406;2023-06-04T14:35:24;29.50;27.20
3408;DHT22;1717;50.240;8.406;2023-06-04T14:37:50;29.60;27.70
3408;DHT22;1717;50.240;8.406;2023-06-04T14:40:17;29.60;27.70
3408;DHT22;1717;50.240;8.406;2023-06-04T14:42:44;29.70;27.90
3408;DHT22;1717;50.240;8.406;2023-06-04T14:45:11;29.70;27.80
3408;DHT22;1717;50.240;8.406;2023-06-04T14:47:38;29.70;27.90
3408;DHT22;1717;50.240;8.406;2023-06-04T14:50:07;29.80;27.90
3408;DHT22;1717;50.240;8.406;2023-06-04T14:52:33;29.80;27.80
3408;DHT22;1717;50.240;8.406;2023-06-04T14:55:00;29.80;27.90
3408;DHT22;1717;50.240;8.406;2023-06-04T14:57:27;29.80;28.10
3408;DHT22;1717;50.240;8.406;2023-06-04T14:59:54;30.00;28.20
3408;DHT22;1717;50.240;8.406;2023-06-04T15:02:21;29.90;28.30
3408;DHT22;1717;50.240;8.406;2023-06-04T15:04:48;29.90;28.00
3408;DHT22;1717;50.240;8.406;2023-06-04T15:07:16;29.80;27.70
3408;DHT22;1717;50.240;8.406;2023-06-04T15:09:44;29.90;27.80
3408;DHT22;1717;50.240;8.406;2023-06-04T15:12:13;29.90;28.10
3408;DHT22;1717;50.240;8.406;2023-06-04T15:14:41;29.90;27.70
3408;DHT22;1717;50.240;8.406;2023-06-04T15:17:08;29.90;27.90
3408;DHT22;1717;50.240;8.406;2023-06-04T15:19:36;29.90;28.00
3408;DHT22;1717;50.240;8.406;2023-06-04T15:22:03;29.90;28.00
3408;DHT22;1717;50.240;8.406;2023-06-04T15:24:31;29.90;28.00
3408;DHT22;1717;50.240;8.406;2023-06-04T15:26:58;29.90;28.00
3408;DHT22;1717;50.240;8.406;2023-06-04T15:29:25;29.80;27.90
3408;DHT22;1717;50.240;8.406;2023-06-04T15:31:52;29.90;28.20
3408;DHT22;1717;50.240;8.406;2023-06-04T15:34:19;29.80;27.90
3408;DHT22;1717;50.240;8.406;2023-06-04T15:36:46;29.90;28.20
3408;DHT22;1717;50.240;8.406;2023-06-04T15:39:13;29.90;28.10
3408;DHT22;1717;50.240;8.406;2023-06-04T15:41:41;29.90;28.20
3408;DHT22;1717;50.240;8.406;2023-06-04T15:44:08;29.90;28.20
3408;DHT22;1717;50.240;8.406;2023-06-04T15:46:35;29.90;28.00
3408;DHT22;1717;50.240;8.406;2023-06-04T15:49:05;29.90;28.20
3408;DHT22;1717;50.240;8.406;2023-06-04T15:51:32;29.80;28.10
3408;DHT22;1717;50.240;8.406;2023-06-04T15:53:59;29.80;28.20
3408;DHT22;1717;50.240;8.406;2023-06-04T15:56:27;29.90;28.20
3408;DHT22;1717;50.240;8.406;2023-06-04T15:58:57;29.80;28.30
3408;DHT22;1717;50.240;8.406;2023-06-04T16:01:24;29.80;28.20
3408;DHT22;1717;50.240;8.406;2023-06-04T16:03:51;29.70;28.10
3408;DHT22;1717;50.240;8.406;2023-06-04T16:06:18;29.70;28.30